createdAt,value
2024-03-30T00:00:58.644Z,894.00
2024-03-30T00:01:58.657Z,888.00
2024-03-30T00:02:58.742Z,878.00
2024-03-30T00:03:58.685Z,875.00
2024-03-30T00:04:58.680Z,873.00
2024-03-30T00:05:58.677Z,873.00
2024-03-30T00:06:58.705Z,871.00
2024-03-30T00:07:58.693Z,866.00
2024-03-30T00:08:58.719Z,861.00
2024-03-30T00:09:58.726Z,860.00
2024-03-30T00:10:58.745Z,862.00
2024-03-30T00:11:58.724Z,860.00
2024-03-30T00:12:58.736Z,859.00
2024-03-30T00:13:58.727Z,848.00
2024-03-30T00:14:58.743Z,848.00
2024-03-30T00:15:58.748Z,848.00
2024-03-30T00:16:58.762Z,843.00
2024-03-30T00:17:58.779Z,848.00
2024-03-30T00:18:58.771Z,843.00
2024-03-30T00:19:58.772Z,840.00
2024-03-30T00:20:58.791Z,834.00
2024-03-30T00:21:58.774Z,843.00
2024-03-30T00:22:58.818Z,831.00
2024-03-30T00:23:58.790Z,837.00
2024-03-30T00:24:58.793Z,829.00
2024-03-30T00:25:58.835Z,830.00
2024-03-30T00:26:58.819Z,822.00
2024-03-30T00:27:58.825Z,819.00
2024-03-30T00:28:58.885Z,822.00
2024-03-30T00:29:58.935Z,814.00
2024-03-30T00:30:58.979Z,814.00
2024-03-30T00:31:59.046Z,812.00
2024-03-30T00:32:59.131Z,799.00
2024-03-30T00:33:59.140Z,810.00
2024-03-30T00:34:59.192Z,810.00
2024-03-30T00:35:59.226Z,804.00
2024-03-30T00:36:59.279Z,801.00
2024-03-30T00:37:59.324Z,802.00
2024-03-30T00:38:59.391Z,808.00
2024-03-30T00:39:59.423Z,807.00
2024-03-30T00:40:59.488Z,797.00
2024-03-30T00:41:59.529Z,799.00
2024-03-30T00:43:05.466Z,803.00
2024-03-30T00:44:00.640Z,803.00
2024-03-30T00:44:59.580Z,804.00
2024-03-30T00:45:59.592Z,797.00
2024-03-30T00:46:59.612Z,799.00
2024-03-30T00:47:59.672Z,807.00
2024-03-30T00:48:59.600Z,804.00
2024-03-30T00:49:59.587Z,798.00
2024-03-30T00:50:59.610Z,805.00
2024-03-30T00:51:59.617Z,804.00
2024-03-30T00:52:59.637Z,815.00
2024-03-30T00:53:59.617Z,815.00
2024-03-30T00:54:59.684Z,800.00
2024-03-30T00:55:59.719Z,804.00
2024-03-30T00:56:59.769Z,804.00
2024-03-30T00:57:59.832Z,803.00
2024-03-30T00:58:59.868Z,810.00
2024-03-30T00:59:59.905Z,811.00
2024-03-30T01:00:59.974Z,813.00
2024-03-30T01:02:00.007Z,809.00
2024-03-30T01:03:00.050Z,824.00
2024-03-30T01:04:00.126Z,813.00
2024-03-30T01:05:00.157Z,819.00
2024-03-30T01:06:00.193Z,826.00
2024-03-30T01:07:00.226Z,827.00
2024-03-30T01:08:00.282Z,826.00
2024-03-30T01:09:00.334Z,834.00
2024-03-30T01:10:00.410Z,821.00
2024-03-30T01:11:00.451Z,826.00
2024-03-30T01:12:00.497Z,840.00
2024-03-30T01:13:00.552Z,838.00
2024-03-30T01:14:00.643Z,824.00
2024-03-30T01:15:00.649Z,836.00
2024-03-30T01:16:00.676Z,835.00
2024-03-30T01:17:00.755Z,836.00
2024-03-30T01:18:00.806Z,841.00
2024-03-30T01:19:00.828Z,840.00
2024-03-30T01:20:00.889Z,837.00
2024-03-30T01:21:09.677Z,841.00
2024-03-30T01:22:01.947Z,841.00
2024-03-30T01:23:00.958Z,838.00
2024-03-30T01:24:00.973Z,841.00
2024-03-30T01:25:01.025Z,831.00
2024-03-30T01:26:00.983Z,840.00
2024-03-30T01:27:00.990Z,822.00
2024-03-30T01:28:01.004Z,819.00
2024-03-30T01:29:01.022Z,817.00
2024-03-30T01:30:01.019Z,807.00
2024-03-30T01:31:01.010Z,801.00
2024-03-30T01:32:01.021Z,799.00
2024-03-30T01:33:01.037Z,776.00
2024-03-30T01:34:01.033Z,755.00
2024-03-30T01:35:01.043Z,751.00
2024-03-30T01:36:01.061Z,737.00
2024-03-30T01:37:01.047Z,732.00
2024-03-30T01:38:01.068Z,726.00
2024-03-30T01:39:01.128Z,712.00
2024-03-30T01:40:01.142Z,711.00
2024-03-30T01:41:01.142Z,699.00
2024-03-30T01:42:01.142Z,697.00
2024-03-30T01:43:01.176Z,680.00
2024-03-30T01:44:01.169Z,679.00
2024-03-30T01:45:01.178Z,671.00
2024-03-30T01:46:01.169Z,659.00
2024-03-30T01:47:01.174Z,657.00
2024-03-30T01:48:01.209Z,653.00
2024-03-30T01:49:01.199Z,650.00
2024-03-30T01:50:01.232Z,645.00
2024-03-30T01:51:01.247Z,635.00
2024-03-30T01:52:01.307Z,637.00
2024-03-30T01:53:01.361Z,632.00
2024-03-30T01:54:01.453Z,625.00
2024-03-30T01:55:01.547Z,629.00
2024-03-30T01:56:01.560Z,626.00
2024-03-30T01:57:01.615Z,623.00
2024-03-30T01:58:01.685Z,623.00
2024-03-30T01:59:01.736Z,622.00
2024-03-30T02:00:01.849Z,622.00
2024-03-30T02:01:01.850Z,615.00
2024-03-30T02:02:01.923Z,613.00
2024-03-30T02:03:01.996Z,607.00
2024-03-30T02:04:02.042Z,610.00
2024-03-30T02:05:02.055Z,601.00
2024-03-30T02:06:02.059Z,592.00
2024-03-30T02:07:02.061Z,587.00
2024-03-30T02:08:02.082Z,577.00
2024-03-30T02:09:02.094Z,578.00
2024-03-30T02:10:02.084Z,600.00
2024-03-30T02:11:02.107Z,606.00
2024-03-30T02:12:02.110Z,603.00
2024-03-30T02:13:02.119Z,602.00
2024-03-30T02:14:02.136Z,600.00
2024-03-30T02:15:02.225Z,602.00
2024-03-30T02:16:02.297Z,600.00
2024-03-30T02:17:02.373Z,607.00
2024-03-30T02:18:02.438Z,600.00
2024-03-30T02:19:02.502Z,602.00
2024-03-30T02:20:02.580Z,600.00
2024-03-30T02:21:02.649Z,598.00
2024-03-30T02:22:02.711Z,600.00
2024-03-30T02:23:02.810Z,600.00
2024-03-30T02:24:02.858Z,603.00
2024-03-30T02:25:02.958Z,603.00
2024-03-30T02:26:03.002Z,605.00
2024-03-30T02:27:03.082Z,604.00
2024-03-30T02:28:03.142Z,601.00
2024-03-30T02:29:03.223Z,605.00
2024-03-30T02:30:03.276Z,607.00
2024-03-30T02:31:03.343Z,600.00
2024-03-30T02:32:03.445Z,604.00
2024-03-30T02:33:03.529Z,605.00
2024-03-30T02:34:03.547Z,603.00
2024-03-30T02:35:03.618Z,606.00
2024-03-30T02:36:03.674Z,603.00
2024-03-30T02:37:03.740Z,609.00
2024-03-30T02:38:03.831Z,606.00
2024-03-30T02:39:03.901Z,608.00
2024-03-30T02:40:03.968Z,606.00
2024-03-30T02:41:04.021Z,609.00
2024-03-30T02:42:04.093Z,611.00
2024-03-30T02:43:04.166Z,614.00
2024-03-30T02:44:04.213Z,617.00
2024-03-30T02:45:04.282Z,622.00
2024-03-30T02:46:04.327Z,622.00
2024-03-30T02:47:04.390Z,625.00
2024-03-30T02:48:04.452Z,624.00
2024-03-30T02:49:04.514Z,628.00
2024-03-30T02:50:04.581Z,625.00
2024-03-30T02:51:04.656Z,628.00
2024-03-30T02:52:04.710Z,629.00
2024-03-30T02:53:04.768Z,633.00
2024-03-30T02:54:04.828Z,638.00
2024-03-30T02:55:04.894Z,637.00
2024-03-30T02:56:04.968Z,637.00
2024-03-30T02:57:05.015Z,642.00
2024-03-30T02:58:05.082Z,644.00
2024-03-30T02:59:05.149Z,644.00
2024-03-30T03:00:05.214Z,647.00
2024-03-30T03:01:05.297Z,652.00
2024-03-30T03:02:05.362Z,650.00
2024-03-30T03:03:05.426Z,656.00
2024-03-30T03:04:05.499Z,657.00
2024-03-30T03:05:05.513Z,657.00
2024-03-30T03:06:05.501Z,658.00
2024-03-30T03:07:05.514Z,658.00
2024-03-30T03:08:05.519Z,663.00
2024-03-30T03:09:05.525Z,677.00
2024-03-30T03:10:05.539Z,675.00
2024-03-30T03:11:05.536Z,688.00
2024-03-30T03:12:05.541Z,696.00
2024-03-30T03:13:05.550Z,709.00
2024-03-30T03:14:05.593Z,705.00
2024-03-30T03:15:05.676Z,719.00
2024-03-30T03:16:05.679Z,720.00
2024-03-30T03:17:05.675Z,721.00
2024-03-30T03:18:05.685Z,730.00
2024-03-30T03:19:05.703Z,721.00
2024-03-30T03:20:05.708Z,726.00
2024-03-30T03:21:05.704Z,741.00
2024-03-30T03:22:05.707Z,761.00
2024-03-30T03:23:05.756Z,789.00
2024-03-30T03:24:05.727Z,793.00
2024-03-30T03:25:05.748Z,793.00
2024-03-30T03:26:05.730Z,810.00
2024-03-30T03:27:05.738Z,816.00
2024-03-30T03:28:05.766Z,817.00
2024-03-30T03:29:05.837Z,830.00
2024-03-30T03:30:05.915Z,838.00
2024-03-30T03:31:05.916Z,838.00
2024-03-30T03:32:05.916Z,839.00
2024-03-30T03:33:05.936Z,847.00
2024-03-30T03:34:05.932Z,849.00
2024-03-30T03:35:05.937Z,871.00
2024-03-30T03:36:05.952Z,875.00
2024-03-30T03:37:05.945Z,881.00
2024-03-30T03:38:05.959Z,873.00
2024-03-30T03:39:05.964Z,881.00
2024-03-30T03:40:05.997Z,879.00
2024-03-30T03:41:06.118Z,892.00
2024-03-30T03:42:06.117Z,884.00
2024-03-30T03:43:06.202Z,896.00
2024-03-30T03:44:06.238Z,898.00
2024-03-30T03:45:06.310Z,894.00
2024-03-30T03:46:06.428Z,904.00
2024-03-30T03:47:06.464Z,895.00
2024-03-30T03:48:06.510Z,915.00
2024-03-30T03:49:06.574Z,911.00
2024-03-30T03:50:06.629Z,919.00
2024-03-30T03:51:06.696Z,924.00
2024-03-30T03:52:06.782Z,925.00
2024-03-30T03:53:06.887Z,932.00
2024-03-30T03:54:06.885Z,931.00
2024-03-30T03:55:06.952Z,930.00
2024-03-30T03:56:07.031Z,937.00
2024-03-30T03:57:07.096Z,938.00
2024-03-30T03:58:07.155Z,942.00
2024-03-30T03:59:07.216Z,948.00
2024-03-30T04:00:07.276Z,945.00
2024-03-30T04:01:07.341Z,952.00
2024-03-30T04:02:07.408Z,949.00
2024-03-30T04:03:07.481Z,956.00
2024-03-30T04:04:07.548Z,948.00
2024-03-30T04:05:07.617Z,957.00
2024-03-30T04:06:07.668Z,954.00
2024-03-30T04:07:07.740Z,959.00
2024-03-30T04:08:07.810Z,956.00
2024-03-30T04:09:07.864Z,967.00
2024-03-30T04:10:07.950Z,978.00
2024-03-30T04:11:07.987Z,975.00
2024-03-30T04:12:08.072Z,980.00
2024-03-30T04:13:08.130Z,975.00
2024-03-30T04:14:08.219Z,985.00
2024-03-30T04:15:08.266Z,984.00
2024-03-30T04:16:08.323Z,997.00
2024-03-30T04:17:08.395Z,991.00
2024-03-30T04:18:08.482Z,1006.00
2024-03-30T04:19:08.511Z,996.00
2024-03-30T04:20:08.600Z,1011.00
2024-03-30T04:21:08.656Z,1012.00
2024-03-30T04:22:08.705Z,1001.00
2024-03-30T04:23:08.772Z,1016.00
2024-03-30T04:24:08.841Z,1010.00
2024-03-30T04:25:08.890Z,1018.00
2024-03-30T04:26:08.950Z,1030.00
2024-03-30T04:27:09.036Z,1029.00
2024-03-30T04:28:09.079Z,1037.00
2024-03-30T04:29:09.134Z,1020.00
2024-03-30T04:30:16.377Z,600.00
